sensor_id;sensor_type;location;lat;lon;timestamp;pressure;altitude;pressure_sealevel;temperature;humidity
67738;BME280;54534;43.612;1.572;2022-12-07T00:01:38;99060.81;;;18.79;44.00
67738;BME280;54534;43.612;1.572;2022-12-07T00:04:05;99060.94;;;18.77;44.48
67738;BME280;54534;43.612;1.572;2022-12-07T00:06:42;99058.16;;;18.79;43.95
67738;BME280;54534;43.612;1.572;2022-12-07T00:09:13;99049.44;;;18.77;44.08
67738;BME280;54534;43.612;1.572;2022-12-07T00:11:39;99052.94;;;18.77;44.20
67738;BME280;54534;43.612;1.572;2022-12-07T00:14:06;99056.47;;;18.78;43.90
67738;BME280;54534;43.612;1.572;2022-12-07T00:16:34;99050.28;;;18.77;43.91
67738;BME280;54534;43.612;1.572;2022-12-07T00:19:00;99047.63;;;18.77;43.86
67738;BME280;54534;43.612;1.572;2022-12-07T00:21:31;99039.63;;;18.77;43.78
67738;BME280;54534;43.612;1.572;2022-12-07T00:23:57;99044.09;;;18.77;43.69
67738;BME280;54534;43.612;1.572;2022-12-07T00:28:51;99035.28;;;18.76;44.06
67738;BME280;54534;43.612;1.572;2022-12-07T00:31:19;99042.44;;;18.76;44.19
67738;BME280;54534;43.612;1.572;2022-12-07T00:33:45;99038.91;;;18.75;44.15
67738;BME280;54534;43.612;1.572;2022-12-07T00:36:14;99037.22;;;18.74;43.83
67738;BME280;54534;43.612;1.572;2022-12-07T00:38:40;99030.09;;;18.75;43.68
67738;BME280;54534;43.612;1.572;2022-12-07T00:41:12;99023.91;;;18.74;43.67
67738;BME280;54534;43.612;1.572;2022-12-07T00:43:38;99023.06;;;18.74;44.00
67738;BME280;54534;43.612;1.572;2022-12-07T00:46:04;99030.22;;;18.73;43.80
67738;BME280;54534;43.612;1.572;2022-12-07T00:48:30;99026.56;;;18.74;43.84
67738;BME280;54534;43.612;1.572;2022-12-07T00:50:55;99038.22;;;18.73;43.77
67738;BME280;54534;43.612;1.572;2022-12-07T00:53:22;99025.84;;;18.72;43.78
67738;BME280;54534;43.612;1.572;2022-12-07T00:55:47;99017.72;;;18.74;44.00
67738;BME280;54534;43.612;1.572;2022-12-07T00:58:13;99018.72;;;18.73;43.74
67738;BME280;54534;43.612;1.572;2022-12-07T01:00:40;99015.19;;;18.72;44.04
67738;BME280;54534;43.612;1.572;2022-12-07T01:03:08;99017.88;;;18.72;43.71
67738;BME280;54534;43.612;1.572;2022-12-07T01:05:34;99010.72;;;18.73;43.87
67738;BME280;54534;43.612;1.572;2022-12-07T01:07:59;99011.69;;;18.72;44.02
67738;BME280;54534;43.612;1.572;2022-12-07T01:10:27;99009.88;;;18.72;44.04
67738;BME280;54534;43.612;1.572;2022-12-07T01:12:53;99009.16;;;18.70;43.44
67738;BME280;54534;43.612;1.572;2022-12-07T01:15:18;99010.84;;;18.71;43.89
67738;BME280;54534;43.612;1.572;2022-12-07T01:17:44;99008.19;;;18.71;43.72
67738;BME280;54534;43.612;1.572;2022-12-07T01:20:09;99010.84;;;18.71;43.95
67738;BME280;54534;43.612;1.572;2022-12-07T01:22:39;98998.16;;;18.63;43.58
67738;BME280;54534;43.612;1.572;2022-12-07T01:25:06;99009.16;;;18.70;43.46
67738;BME280;54534;43.612;1.572;2022-12-07T01:27:33;99009.16;;;18.70;43.86
67738;BME280;54534;43.612;1.572;2022-12-07T01:29:59;99010.97;;;18.70;43.71
67738;BME280;54534;43.612;1.572;2022-12-07T01:32:24;99006.50;;;18.70;43.89
67738;BME280;54534;43.612;1.572;2022-12-07T01:34:50;99006.50;;;18.70;43.44
67738;BME280;54534;43.612;1.572;2022-12-07T01:37:15;99009.16;;;18.70;43.72
67738;BME280;54534;43.612;1.572;2022-12-07T01:39:41;99013.66;;;18.70;43.46
67738;BME280;54534;43.612;1.572;2022-12-07T01:42:12;99016.31;;;18.70;43.60
67738;BME280;54534;43.612;1.572;2022-12-07T01:47:43;99011.22;;;18.66;43.92
67738;BME280;54534;43.612;1.572;2022-12-07T01:50:11;99020.78;;;18.69;43.40
67738;BME280;54534;43.612;1.572;2022-12-07T01:52:38;99016.56;;;18.66;43.77
67738;BME280;54534;43.612;1.572;2022-12-07T01:55:08;99028.06;;;18.67;43.49
67738;BME280;54534;43.612;1.572;2022-12-07T01:57:38;99030.72;;;18.67;43.42
67738;BME280;54534;43.612;1.572;2022-12-07T02:00:05;99027.34;;;18.65;43.84
67738;BME280;54534;43.612;1.572;2022-12-07T02:02:37;99030.97;;;18.64;43.50
67738;BME280;54534;43.612;1.572;2022-12-07T02:05:04;99036.91;;;18.67;43.61
67738;BME280;54534;43.612;1.572;2022-12-07T02:07:32;99025.41;;;18.67;43.51
67738;BME280;54534;43.612;1.572;2022-12-07T02:10:32;99029.03;;;18.66;43.41
67738;BME280;54534;43.612;1.572;2022-12-07T02:13:02;99029.16;;;18.64;43.72
67738;BME280;54534;43.612;1.572;2022-12-07T02:15:38;99029.03;;;18.66;43.49
67738;BME280;54534;43.612;1.572;2022-12-07T02:20:43;99019.38;;;18.65;43.74
67738;BME280;54534;43.612;1.572;2022-12-07T02:31:36;99020.31;;;18.64;43.36
67738;BME280;54534;43.612;1.572;2022-12-07T02:34:19;99016.69;;;18.65;43.82
67738;BME280;54534;43.612;1.572;2022-12-07T02:36:54;99007.00;;;18.64;43.51
67738;BME280;54534;43.612;1.572;2022-12-07T02:39:40;99019.47;;;18.63;43.56
67738;BME280;54534;43.612;1.572;2022-12-07T02:42:28;99005.97;;;18.55;43.49
67738;BME280;54534;43.612;1.572;2022-12-07T02:44:56;99015.84;;;18.64;43.46
67738;BME280;54534;43.612;1.572;2022-12-07T02:47:24;99013.31;;;18.63;43.34
67738;BME280;54534;43.612;1.572;2022-12-07T02:49:50;99013.31;;;18.63;43.53
67738;BME280;54534;43.612;1.572;2022-12-07T02:52:16;99012.34;;;18.64;43.75
67738;BME280;54534;43.612;1.572;2022-12-07T02:54:41;99013.31;;;18.63;43.71
67738;BME280;54534;43.612;1.572;2022-12-07T03:00:26;99006.16;;;18.63;43.69
67738;BME280;54534;43.612;1.572;2022-12-07T03:02:46;99000.00;;;18.63;43.36
67738;BME280;54534;43.612;1.572;2022-12-07T03:11:00;99004.50;;;18.62;43.55
67738;BME280;54534;43.612;1.572;2022-12-07T03:14:17;99007.16;;;18.62;43.48
67738;BME280;54534;43.612;1.572;2022-12-07T03:16:21;99008.97;;;18.62;43.30
67738;BME280;54534;43.612;1.572;2022-12-07T03:18:52;99010.66;;;18.63;43.42
67738;BME280;54534;43.612;1.572;2022-12-07T03:21:23;99013.31;;;18.63;43.29
67738;BME280;54534;43.612;1.572;2022-12-07T03:23:56;99011.63;;;18.62;43.18
67738;BME280;54534;43.612;1.572;2022-12-07T03:26:34;99004.50;;;18.62;43.69
67738;BME280;54534;43.612;1.572;2022-12-07T03:29:05;99008.13;;;18.61;43.63
67738;BME280;54534;43.612;1.572;2022-12-07T03:31:37;99014.44;;;18.60;43.33
67738;BME280;54534;43.612;1.572;2022-12-07T03:34:24;99007.16;;;18.62;43.61
67738;BME280;54534;43.612;1.572;2022-12-07T03:41:50;99010.78;;;18.61;43.22
67738;BME280;54534;43.612;1.572;2022-12-07T03:44:16;99012.59;;;18.61;43.53
67738;BME280;54534;43.612;1.572;2022-12-07T03:46:50;99014.44;;;18.60;43.52
67738;BME280;54534;43.612;1.572;2022-12-07T03:49:30;99001.94;;;18.61;43.22
67738;BME280;54534;43.612;1.572;2022-12-07T03:52:32;98994.81;;;18.61;43.19
67738;BME280;54534;43.612;1.572;2022-12-07T03:55:06;99001.13;;;18.60;43.48
67738;BME280;54534;43.612;1.572;2022-12-07T03:57:35;98992.28;;;18.60;43.51
67738;BME280;54534;43.612;1.572;2022-12-07T04:00:04;98991.44;;;18.59;43.50
67738;BME280;54534;43.612;1.572;2022-12-07T04:02:30;98991.28;;;18.61;43.43
67738;BME280;54534;43.612;1.572;2022-12-07T04:04:56;98986.09;;;18.59;43.54
67738;BME280;54534;43.612;1.572;2022-12-07T04:07:21;98992.28;;;18.60;43.64
67738;BME280;54534;43.612;1.572;2022-12-07T04:09:47;98986.09;;;18.59;43.07
67738;BME280;54534;43.612;1.572;2022-12-07T04:12:12;98984.28;;;18.60;43.50
67738;BME280;54534;43.612;1.572;2022-12-07T04:14:37;98986.94;;;18.60;43.31
67738;BME280;54534;43.612;1.572;2022-12-07T04:17:03;98994.09;;;18.59;43.53
67738;BME280;54534;43.612;1.572;2022-12-07T04:19:30;98986.94;;;18.60;43.46
67738;BME280;54534;43.612;1.572;2022-12-07T04:21:57;98987.91;;;18.59;43.42
67738;BME280;54534;43.612;1.572;2022-12-07T04:24:23;98985.25;;;18.59;43.54
67738;BME280;54534;43.612;1.572;2022-12-07T04:26:49;98979.22;;;18.56;43.44
67738;BME280;54534;43.612;1.572;2022-12-07T04:29:15;98990.56;;;18.59;43.24
67738;BME280;54534;43.612;1.572;2022-12-07T04:31:41;98993.25;;;18.59;43.45
67738;BME280;54534;43.612;1.572;2022-12-07T04:34:07;98984.41;;;18.58;43.16
67738;BME280;54534;43.612;1.572;2022-12-07T04:36:33;98974.75;;;18.57;43.13
67738;BME280;54534;43.612;1.572;2022-12-07T04:38:59;98971.94;;;18.59;43.42
67738;BME280;54534;43.612;1.572;2022-12-07T04:41:25;98976.31;;;18.60;43.09
67738;BME280;54534;43.612;1.572;2022-12-07T04:44:01;98980.78;;;18.59;43.13
67738;BME280;54534;43.612;1.572;2022-12-07T04:46:29;98976.31;;;18.60;43.36
67738;BME280;54534;43.612;1.572;2022-12-07T04:48:55;98985.25;;;18.59;43.00
67738;BME280;54534;43.612;1.572;2022-12-07T04:51:26;98981.03;;;18.56;43.25
67738;BME280;54534;43.612;1.572;2022-12-07T04:53:52;98990.56;;;18.59;43.32
67738;BME280;54534;43.612;1.572;2022-12-07T04:56:18;98980.91;;;18.58;43.15
67738;BME280;54534;43.612;1.572;2022-12-07T04:58:45;98987.91;;;18.59;42.94
67738;BME280;54534;43.612;1.572;2022-12-07T05:01:11;98982.59;;;18.59;43.12
67738;BME280;54534;43.612;1.572;2022-12-07T05:03:37;98983.59;;;18.58;43.47
67738;BME280;54534;43.612;1.572;2022-12-07T05:06:03;98978.25;;;18.58;43.04
67738;BME280;54534;43.612;1.572;2022-12-07T05:08:29;98987.19;;;18.56;43.40
67738;BME280;54534;43.612;1.572;2022-12-07T05:10:55;98988.06;;;18.57;43.21
67738;BME280;54534;43.612;1.572;2022-12-07T05:13:21;98982.84;;;18.55;43.56
67738;BME280;54534;43.612;1.572;2022-12-07T05:15:47;98981.03;;;18.56;43.38
67738;BME280;54534;43.612;1.572;2022-12-07T05:18:12;98973.88;;;18.56;43.09
67738;BME280;54534;43.612;1.572;2022-12-07T05:20:39;98981.88;;;18.56;43.50
67738;BME280;54534;43.612;1.572;2022-12-07T05:23:04;98981.88;;;18.56;43.41
67738;BME280;54534;43.612;1.572;2022-12-07T05:25:30;98982.13;;;18.53;43.13
67738;BME280;54534;43.612;1.572;2022-12-07T05:27:56;98981.88;;;18.56;43.30
67738;BME280;54534;43.612;1.572;2022-12-07T05:30:22;98981.88;;;18.56;43.53
67738;BME280;54534;43.612;1.572;2022-12-07T05:32:48;98981.88;;;18.56;43.54
67738;BME280;54534;43.612;1.572;2022-12-07T05:35:13;98979.22;;;18.56;43.24
67738;BME280;54534;43.612;1.572;2022-12-07T05:37:39;98976.56;;;18.56;43.33
67738;BME280;54534;43.612;1.572;2022-12-07T05:40:05;98975.84;;;18.54;43.57
67738;BME280;54534;43.612;1.572;2022-12-07T05:42:30;98975.69;;;18.56;42.90
67738;BME280;54534;43.612;1.572;2022-12-07T05:44:56;98974.84;;;18.55;43.02
67738;BME280;54534;43.612;1.572;2022-12-07T05:47:21;98969.53;;;18.55;43.30
67738;BME280;54534;43.612;1.572;2022-12-07T05:49:46;98969.66;;;18.54;43.39
67738;BME280;54534;43.612;1.572;2022-12-07T05:52:12;98977.50;;;18.55;43.38
67738;BME280;54534;43.612;1.572;2022-12-07T05:54:38;98974.03;;;18.55;42.85
67738;BME280;54534;43.612;1.572;2022-12-07T05:57:03;98980.19;;;18.55;43.41
67738;BME280;54534;43.612;1.572;2022-12-07T05:59:28;98974.03;;;18.55;42.93
67738;BME280;54534;43.612;1.572;2022-12-07T06:02:14;98973.19;;;18.54;43.09
67738;BME280;54534;43.612;1.572;2022-12-07T06:04:42;98970.53;;;18.54;43.31
67738;BME280;54534;43.612;1.572;2022-12-07T06:07:08;98974.03;;;18.55;43.36
67738;BME280;54534;43.612;1.572;2022-12-07T06:09:34;98968.81;;;18.53;43.03
67738;BME280;54534;43.612;1.572;2022-12-07T06:12:01;98970.53;;;18.54;43.37
67738;BME280;54534;43.612;1.572;2022-12-07T06:14:45;98964.19;;;18.55;43.32
67738;BME280;54534;43.612;1.572;2022-12-07T06:17:11;98972.34;;;18.54;43.25
67738;BME280;54534;43.612;1.572;2022-12-07T06:19:37;98962.53;;;18.54;43.31
67738;BME280;54534;43.612;1.572;2022-12-07T06:22:03;98959.88;;;18.54;43.25
67738;BME280;54534;43.612;1.572;2022-12-07T06:24:30;98957.22;;;18.54;42.98
67738;BME280;54534;43.612;1.572;2022-12-07T06:26:55;98957.22;;;18.54;43.25
67738;BME280;54534;43.612;1.572;2022-12-07T06:29:21;98962.53;;;18.54;43.02
67738;BME280;54534;43.612;1.572;2022-12-07T06:31:47;98966.88;;;18.55;43.07
67738;BME280;54534;43.612;1.572;2022-12-07T06:34:15;98966.88;;;18.55;43.53
67738;BME280;54534;43.612;1.572;2022-12-07T06:36:41;98962.53;;;18.54;43.13
67738;BME280;54534;43.612;1.572;2022-12-07T06:39:07;98965.19;;;18.54;43.18
67738;BME280;54534;43.612;1.572;2022-12-07T06:41:35;98965.31;;;18.53;43.11
67738;BME280;54534;43.612;1.572;2022-12-07T06:44:01;98971.38;;;18.55;43.24
67738;BME280;54534;43.612;1.572;2022-12-07T06:46:26;98964.34;;;18.54;43.14
67738;BME280;54534;43.612;1.572;2022-12-07T06:48:52;98960.84;;;18.53;43.26
67738;BME280;54534;43.612;1.572;2022-12-07T06:51:17;98959.88;;;18.54;43.17
67738;BME280;54534;43.612;1.572;2022-12-07T06:53:42;98965.31;;;18.53;43.33
67738;BME280;54534;43.612;1.572;2022-12-07T06:56:08;98960.84;;;18.53;43.38
67738;BME280;54534;43.612;1.572;2022-12-07T06:58:33;98964.19;;;18.55;43.60
67738;BME280;54534;43.612;1.572;2022-12-07T07:00:59;98965.19;;;18.54;43.67
67738;BME280;54534;43.612;1.572;2022-12-07T07:03:24;98964.34;;;18.54;43.69
67738;BME280;54534;43.612;1.572;2022-12-07T07:05:50;98962.53;;;18.54;43.66
67738;BME280;54534;43.612;1.572;2022-12-07T07:08:15;98963.38;;;18.55;43.76
67738;BME280;54534;43.612;1.572;2022-12-07T07:10:41;98960.72;;;18.55;43.62
67738;BME280;54534;43.612;1.572;2022-12-07T07:13:07;98961.53;;;18.55;43.60
67738;BME280;54534;43.612;1.572;2022-12-07T07:15:33;98966.88;;;18.55;43.62
67738;BME280;54534;43.612;1.572;2022-12-07T07:17:59;98970.53;;;18.54;43.91
67738;BME280;54534;43.612;1.572;2022-12-07T07:20:24;98969.53;;;18.55;43.97
67738;BME280;54534;43.612;1.572;2022-12-07T07:22:50;98967.84;;;18.54;43.77
67738;BME280;54534;43.612;1.572;2022-12-07T07:25:16;98966.88;;;18.55;43.90
67738;BME280;54534;43.612;1.572;2022-12-07T07:27:41;98966.16;;;18.53;43.82
67738;BME280;54534;43.612;1.572;2022-12-07T07:30:08;98974.84;;;18.55;44.00
67738;BME280;54534;43.612;1.572;2022-12-07T07:32:34;98966.03;;;18.55;43.92
67738;BME280;54534;43.612;1.572;2022-12-07T07:34:59;98977.25;;;18.59;44.08
67738;BME280;54534;43.612;1.572;2022-12-07T07:37:25;98966.63;;;18.59;43.91
67738;BME280;54534;43.612;1.572;2022-12-07T07:39:51;98970.13;;;18.59;44.13
67738;BME280;54534;43.612;1.572;2022-12-07T07:42:16;98971.09;;;18.58;43.87
67738;BME280;54534;43.612;1.572;2022-12-07T07:44:41;98979.91;;;18.59;43.86
67738;BME280;54534;43.612;1.572;2022-12-07T07:47:07;98981.63;;;18.60;43.97
67738;BME280;54534;43.612;1.572;2022-12-07T07:49:32;98985.97;;;18.61;44.00
67738;BME280;54534;43.612;1.572;2022-12-07T07:51:58;98985.13;;;18.60;43.60
67738;BME280;54534;43.612;1.572;2022-12-07T07:54:23;98980.78;;;18.59;43.71
67738;BME280;54534;43.612;1.572;2022-12-07T07:56:49;98981.63;;;18.60;43.37
67738;BME280;54534;43.612;1.572;2022-12-07T07:59:15;98995.78;;;18.60;43.80
67738;BME280;54534;43.612;1.572;2022-12-07T08:01:40;98990.47;;;18.60;43.70
67738;BME280;54534;43.612;1.572;2022-12-07T08:04:06;98994.94;;;18.60;43.70
67738;BME280;54534;43.612;1.572;2022-12-07T08:06:31;98991.44;;;18.59;43.74
67738;BME280;54534;43.612;1.572;2022-12-07T08:08:56;98993.13;;;18.60;43.58
67738;BME280;54534;43.612;1.572;2022-12-07T08:11:23;98994.09;;;18.59;43.41
67738;BME280;54534;43.612;1.572;2022-12-07T08:13:49;98993.25;;;18.59;43.69
67738;BME280;54534;43.612;1.572;2022-12-07T08:16:15;98993.25;;;18.59;43.34
67738;BME280;54534;43.612;1.572;2022-12-07T08:18:41;98982.59;;;18.59;43.37
67738;BME280;54534;43.612;1.572;2022-12-07T08:21:10;98989.72;;;18.58;43.29
67738;BME280;54534;43.612;1.572;2022-12-07T08:23:37;98993.25;;;18.59;43.22
67738;BME280;54534;43.612;1.572;2022-12-07T08:26:08;98990.56;;;18.59;43.51
67738;BME280;54534;43.612;1.572;2022-12-07T08:28:34;98990.56;;;18.59;43.59
67738;BME280;54534;43.612;1.572;2022-12-07T08:31:00;98993.25;;;18.59;43.47
67738;BME280;54534;43.612;1.572;2022-12-07T08:33:26;98984.53;;;18.56;43.37
67738;BME280;54534;43.612;1.572;2022-12-07T08:35:52;98982.59;;;18.59;43.34
67738;BME280;54534;43.612;1.572;2022-12-07T08:38:17;98990.72;;;18.57;43.65
67738;BME280;54534;43.612;1.572;2022-12-07T08:40:42;98993.25;;;18.59;43.41
67738;BME280;54534;43.612;1.572;2022-12-07T08:43:08;98989.88;;;18.56;43.53
67738;BME280;54534;43.612;1.572;2022-12-07T08:45:33;98997.84;;;18.56;43.38
67738;BME280;54534;43.612;1.572;2022-12-07T08:48:12;98993.38;;;18.57;43.37
67738;BME280;54534;43.612;1.572;2022-12-07T08:50:38;98997.00;;;18.56;43.23
67738;BME280;54534;43.612;1.572;2022-12-07T08:53:05;99005.69;;;18.58;43.78
67738;BME280;54534;43.612;1.572;2022-12-07T08:55:31;98989.16;;;18.54;43.68
67738;BME280;54534;43.612;1.572;2022-12-07T08:57:59;98993.50;;;18.55;43.31
67738;BME280;54534;43.612;1.572;2022-12-07T09:00:25;98994.34;;;18.56;43.33
67738;BME280;54534;43.612;1.572;2022-12-07T09:02:51;98996.16;;;18.55;43.73
67738;BME280;54534;43.612;1.572;2022-12-07T09:05:16;98999.66;;;18.56;43.38
67738;BME280;54534;43.612;1.572;2022-12-07T09:07:43;98999.66;;;18.56;43.45
67738;BME280;54534;43.612;1.572;2022-12-07T09:10:11;99002.31;;;18.56;43.69
67738;BME280;54534;43.612;1.572;2022-12-07T09:12:36;98990.81;;;18.55;43.76
67738;BME280;54534;43.612;1.572;2022-12-07T09:15:02;98993.50;;;18.55;43.43
67738;BME280;54534;43.612;1.572;2022-12-07T09:17:32;98999.66;;;18.56;43.71
67738;BME280;54534;43.612;1.572;2022-12-07T09:19:57;98998.00;;;18.55;43.62
67738;BME280;54534;43.612;1.572;2022-12-07T09:22:22;99000.66;;;18.55;43.68
67738;BME280;54534;43.612;1.572;2022-12-07T09:24:48;98998.00;;;18.55;43.58
67738;BME280;54534;43.612;1.572;2022-12-07T09:27:13;98998.81;;;18.55;43.31
67738;BME280;54534;43.612;1.572;2022-12-07T09:29:39;98998.00;;;18.55;43.66
67738;BME280;54534;43.612;1.572;2022-12-07T09:32:04;98995.34;;;18.55;43.32
67738;BME280;54534;43.612;1.572;2022-12-07T09:34:31;98996.44;;;18.52;43.50
67738;BME280;54534;43.612;1.572;2022-12-07T09:36:57;98994.47;;;18.54;43.31
67738;BME280;54534;43.612;1.572;2022-12-07T09:39:24;98998.97;;;18.54;43.39
67738;BME280;54534;43.612;1.572;2022-12-07T09:41:49;98994.47;;;18.54;43.41
67738;BME280;54534;43.612;1.572;2022-12-07T09:44:21;98999.81;;;18.54;43.59
67738;BME280;54534;43.612;1.572;2022-12-07T09:46:48;98998.97;;;18.54;43.08
67738;BME280;54534;43.612;1.572;2022-12-07T09:49:19;99003.31;;;18.55;43.60
67738;BME280;54534;43.612;1.572;2022-12-07T09:51:46;99007.78;;;18.54;43.50
67738;BME280;54534;43.612;1.572;2022-12-07T09:54:14;99005.13;;;18.54;43.23
67738;BME280;54534;43.612;1.572;2022-12-07T09:56:40;99006.81;;;18.55;43.32
67738;BME280;54534;43.612;1.572;2022-12-07T09:59:05;99008.66;;;18.55;43.38
67738;BME280;54534;43.612;1.572;2022-12-07T10:01:32;99010.47;;;18.54;43.50
67738;BME280;54534;43.612;1.572;2022-12-07T10:04:20;99005.84;;;18.56;43.63
67738;BME280;54534;43.612;1.572;2022-12-07T10:06:48;99003.44;;;18.53;43.56
67738;BME280;54534;43.612;1.572;2022-12-07T10:09:16;99006.69;;;18.57;43.33
67738;BME280;54534;43.612;1.572;2022-12-07T10:12:05;99014.69;;;18.57;43.69
67738;BME280;54534;43.612;1.572;2022-12-07T10:14:33;99004.13;;;18.55;43.44
67738;BME280;54534;43.612;1.572;2022-12-07T10:16:59;99001.47;;;18.55;43.80
67738;BME280;54534;43.612;1.572;2022-12-07T10:19:28;99005.00;;;18.56;43.37
67738;BME280;54534;43.612;1.572;2022-12-07T10:24:27;99005.00;;;18.56;43.80
67738;BME280;54534;43.612;1.572;2022-12-07T10:26:53;98996.03;;;18.57;43.55
67738;BME280;54534;43.612;1.572;2022-12-07T10:29:29;98990.81;;;18.55;43.46
67738;BME280;54534;43.612;1.572;2022-12-07T10:32:00;98987.19;;;18.56;43.69
67738;BME280;54534;43.612;1.572;2022-12-07T10:34:34;98980.19;;;18.55;43.61
67738;BME280;54534;43.612;1.572;2022-12-07T10:42:21;98972.19;;;18.55;43.92
67738;BME280;54534;43.612;1.572;2022-12-07T10:44:48;98970.38;;;18.56;43.63
67738;BME280;54534;43.612;1.572;2022-12-07T10:47:38;98968.56;;;18.56;43.74
67738;BME280;54534;43.612;1.572;2022-12-07T10:59:37;98950.63;;;18.59;43.89
67738;BME280;54534;43.612;1.572;2022-12-07T11:02:22;98950.63;;;18.59;44.34
67738;BME280;54534;43.612;1.572;2022-12-07T11:04:56;98947.97;;;18.59;43.89
67738;BME280;54534;43.612;1.572;2022-12-07T11:10:25;98944.34;;;18.60;44.24
67738;BME280;54534;43.612;1.572;2022-12-07T11:24:04;98924.84;;;18.59;44.17
67738;BME280;54534;43.612;1.572;2022-12-07T11:27:02;98922.78;;;18.63;43.86
67738;BME280;54534;43.612;1.572;2022-12-07T11:37:51;98908.47;;;18.64;43.78
67738;BME280;54534;43.612;1.572;2022-12-07T11:40:32;98906.53;;;18.66;43.57
67738;BME280;54534;43.612;1.572;2022-12-07T11:45:37;98901.09;;;18.67;44.15
67738;BME280;54534;43.612;1.572;2022-12-07T11:50:42;98909.78;;;18.70;43.72
67738;BME280;54534;43.612;1.572;2022-12-07T11:55:56;98896.22;;;18.73;43.77
67738;BME280;54534;43.612;1.572;2022-12-07T12:03:45;98882.75;;;18.74;44.18
67738;BME280;54534;43.612;1.572;2022-12-07T12:06:11;98879.13;;;18.75;44.43
67738;BME280;54534;43.612;1.572;2022-12-07T12:08:41;98873.66;;;18.77;44.38
67738;BME280;54534;43.612;1.572;2022-12-07T12:14:19;98871.72;;;18.79;44.57
67738;BME280;54534;43.612;1.572;2022-12-07T12:17:24;98868.91;;;18.81;44.69
67738;BME280;54534;43.612;1.572;2022-12-07T12:22:25;98872.28;;;18.83;45.15
67738;BME280;54534;43.612;1.572;2022-12-07T12:24:54;98859.81;;;18.83;45.04
67738;BME280;54534;43.612;1.572;2022-12-07T12:27:27;98868.50;;;18.85;45.25
67738;BME280;54534;43.612;1.572;2022-12-07T12:30:00;98852.53;;;18.85;45.38
67738;BME280;54534;43.612;1.572;2022-12-07T12:32:42;98853.09;;;18.89;45.47
67738;BME280;54534;43.612;1.572;2022-12-07T12:35:30;98851.28;;;18.89;45.36
67738;BME280;54534;43.612;1.572;2022-12-07T12:38:30;98840.50;;;18.91;45.51
67738;BME280;54534;43.612;1.572;2022-12-07T12:41:00;98836.97;;;18.90;45.17
67738;BME280;54534;43.612;1.572;2022-12-07T12:49:13;98846.25;;;18.96;45.12
67738;BME280;54534;43.612;1.572;2022-12-07T12:51:41;98837.28;;;18.97;45.15
67738;BME280;54534;43.612;1.572;2022-12-07T12:54:26;98826.50;;;18.99;45.19
67738;BME280;54534;43.612;1.572;2022-12-07T12:56:55;98838.84;;;19.00;44.97
67738;BME280;54534;43.612;1.572;2022-12-07T13:01:58;98826.22;;;19.02;44.97
67738;BME280;54534;43.612;1.572;2022-12-07T13:07:07;98802.38;;;19.00;45.41
67738;BME280;54534;43.612;1.572;2022-12-07T13:09:34;98804.06;;;19.01;45.00
67738;BME280;54534;43.612;1.572;2022-12-07T13:12:04;98808.28;;;19.04;45.12
67738;BME280;54534;43.612;1.572;2022-12-07T13:14:56;98805.47;;;19.06;45.05
67738;BME280;54534;43.612;1.572;2022-12-07T13:19:57;98794.81;;;19.06;45.13
67738;BME280;54534;43.612;1.572;2022-12-07T13:27:33;98787.25;;;19.11;45.39
67738;BME280;54534;43.612;1.572;2022-12-07T13:29:59;98793.28;;;19.13;45.51
67738;BME280;54534;43.612;1.572;2022-12-07T13:32:28;98790.47;;;19.15;45.46
67738;BME280;54534;43.612;1.572;2022-12-07T13:34:55;98789.50;;;19.16;45.40
67738;BME280;54534;43.612;1.572;2022-12-07T13:39:49;98775.19;;;19.17;45.05
67738;BME280;54534;43.612;1.572;2022-12-07T13:42:24;98766.22;;;19.18;45.34
67738;BME280;54534;43.612;1.572;2022-12-07T13:44:50;98772.28;;;19.20;45.55
67738;BME280;54534;43.612;1.572;2022-12-07T13:47:39;98768.78;;;19.19;45.33
67738;BME280;54534;43.612;1.572;2022-12-07T13:52:47;98772.97;;;19.22;45.52
67738;BME280;54534;43.612;1.572;2022-12-07T13:55:16;98765.00;;;19.22;45.49
67738;BME280;54534;43.612;1.572;2022-12-07T13:57:44;98766.69;;;19.23;45.33
67738;BME280;54534;43.612;1.572;2022-12-07T14:00:16;98763.16;;;19.22;45.43
67738;BME280;54534;43.612;1.572;2022-12-07T14:03:04;98760.22;;;19.26;45.36
67738;BME280;54534;43.612;1.572;2022-12-07T14:08:31;98753.78;;;19.28;45.40
67738;BME280;54534;43.612;1.572;2022-12-07T14:10:57;98759.97;;;19.29;45.59
67738;BME280;54534;43.612;1.572;2022-12-07T14:15:51;98750.00;;;19.31;45.45
67738;BME280;54534;43.612;1.572;2022-12-07T14:21:15;98751.69;;;19.32;45.37
67738;BME280;54534;43.612;1.572;2022-12-07T14:23:42;98758.69;;;19.33;45.15
67738;BME280;54534;43.612;1.572;2022-12-07T14:26:14;98752.38;;;19.34;45.34
67738;BME280;54534;43.612;1.572;2022-12-07T14:28:41;98744.38;;;19.34;45.28
67738;BME280;54534;43.612;1.572;2022-12-07T14:31:16;98750.56;;;19.34;45.50
67738;BME280;54534;43.612;1.572;2022-12-07T14:33:42;98749.72;;;19.34;44.95
67738;BME280;54534;43.612;1.572;2022-12-07T14:36:14;98752.22;;;19.36;45.39
67738;BME280;54534;43.612;1.572;2022-12-07T14:38:40;98746.06;;;19.35;45.33
67738;BME280;54534;43.612;1.572;2022-12-07T14:41:12;98747.75;;;19.36;45.34
67738;BME280;54534;43.612;1.572;2022-12-07T14:43:57;98749.56;;;19.36;45.33
67738;BME280;54534;43.612;1.572;2022-12-07T14:46:23;98753.09;;;19.36;45.29
67738;BME280;54534;43.612;1.572;2022-12-07T14:48:49;98752.22;;;19.36;45.35
67738;BME280;54534;43.612;1.572;2022-12-07T14:51:14;98751.25;;;19.37;45.06
67738;BME280;54534;43.612;1.572;2022-12-07T14:53:43;98745.94;;;19.37;45.06
67738;BME280;54534;43.612;1.572;2022-12-07T14:56:10;98743.28;;;19.37;45.09
67738;BME280;54534;43.612;1.572;2022-12-07T14:58:35;98740.59;;;19.37;45.05
67738;BME280;54534;43.612;1.572;2022-12-07T15:01:01;98740.72;;;19.35;45.22
67738;BME280;54534;43.612;1.572;2022-12-07T15:03:26;98734.44;;;19.36;44.87
67738;BME280;54534;43.612;1.572;2022-12-07T15:05:52;98744.13;;;19.37;44.86
67738;BME280;54534;43.612;1.572;2022-12-07T15:08:18;98736.94;;;19.38;45.06
67738;BME280;54534;43.612;1.572;2022-12-07T15:10:43;98738.78;;;19.37;44.98